createdAt,value
2023-01-19T00:00:54.499Z,64.59
2023-01-19T00:03:22.567Z,64.88
2023-01-19T00:05:51.443Z,65.44
2023-01-19T00:08:20.926Z,65.49
2023-01-19T00:10:55.478Z,65.46
2023-01-19T00:13:23.582Z,65.26
2023-01-19T00:15:51.670Z,65.17
2023-01-19T00:18:19.854Z,64.79
2023-01-19T00:20:48.439Z,64.60
2023-01-19T00:23:17.046Z,64.53
2023-01-19T00:25:47.931Z,64.19
2023-01-19T00:28:18.499Z,64.81
2023-01-19T00:30:47.120Z,64.69
2023-01-19T00:33:15.316Z,64.56
2023-01-19T00:35:43.707Z,64.27
2023-01-19T00:38:13.258Z,64.14
2023-01-19T00:40:41.370Z,63.99
2023-01-19T00:43:10.798Z,63.92
2023-01-19T00:45:38.879Z,63.71
2023-01-19T00:48:07.319Z,63.97
2023-01-19T00:50:35.867Z,63.73
2023-01-19T00:53:03.975Z,63.95
2023-01-19T00:55:33.496Z,63.77
2023-01-19T00:58:02.948Z,63.54
2023-01-19T01:00:32.397Z,63.85
2023-01-19T01:03:00.782Z,63.79
2023-01-19T01:05:29.142Z,63.47
2023-01-19T01:07:57.434Z,63.50
2023-01-19T01:10:28.171Z,63.40
2023-01-19T01:13:21.015Z,63.87
2023-01-19T01:15:45.931Z,64.27
2023-01-19T01:18:13.943Z,64.12
2023-01-19T01:20:42.010Z,64.40
2023-01-19T01:23:10.121Z,64.67
2023-01-19T01:25:38.706Z,64.69
2023-01-19T01:28:08.748Z,64.72
2023-01-19T01:30:40.043Z,64.37
2023-01-19T01:33:11.482Z,64.69
2023-01-19T01:35:39.769Z,65.14
2023-01-19T01:38:07.859Z,65.08
2023-01-19T01:40:35.903Z,64.50
2023-01-19T01:43:04.005Z,64.56
2023-01-19T01:45:34.331Z,64.66
2023-01-19T01:48:08.742Z,64.43
2023-01-19T01:51:01.830Z,64.00
2023-01-19T01:53:34.609Z,64.56
2023-01-19T01:56:05.516Z,64.44
2023-01-19T01:58:35.121Z,64.90
2023-01-19T02:01:20.940Z,64.44
2023-01-19T02:03:49.135Z,64.34
2023-01-19T02:06:18.813Z,64.34
2023-01-19T02:09:10.550Z,63.85
2023-01-19T02:11:56.248Z,64.23
2023-01-19T02:14:24.284Z,63.93
2023-01-19T02:16:52.518Z,63.72
2023-01-19T02:19:26.101Z,63.95
2023-01-19T02:21:58.608Z,63.42
2023-01-19T02:24:29.372Z,63.56
2023-01-19T02:26:57.805Z,63.43
2023-01-19T02:29:27.603Z,63.61
2023-01-19T02:31:57.283Z,63.76
2023-01-19T02:34:25.392Z,63.95
2023-01-19T02:36:56.138Z,64.24
2023-01-19T02:39:30.196Z,64.11
2023-01-19T02:42:02.956Z,64.37
2023-01-19T02:44:32.068Z,64.75
2023-01-19T02:47:00.325Z,64.67
2023-01-19T02:49:31.923Z,64.58
2023-01-19T02:52:01.477Z,64.54
2023-01-19T02:54:50.430Z,64.85
2023-01-19T02:57:54.167Z,64.60
2023-01-19T03:00:36.701Z,64.77
2023-01-19T03:03:16.748Z,64.44
2023-01-19T03:05:57.228Z,65.14
2023-01-19T03:08:35.854Z,64.87
2023-01-19T03:11:07.388Z,64.78
2023-01-19T03:13:45.395Z,64.85
2023-01-19T03:16:21.854Z,64.91
2023-01-19T03:18:54.930Z,64.77
2023-01-19T03:21:27.433Z,65.08
2023-01-19T03:23:59.818Z,64.59
2023-01-19T03:26:31.435Z,64.69
2023-01-19T03:29:03.520Z,65.01
2023-01-19T03:31:33.884Z,65.54
2023-01-19T03:34:06.927Z,65.29
2023-01-19T03:36:38.687Z,65.24
2023-01-19T03:39:10.156Z,64.92
2023-01-19T03:41:42.097Z,65.37
2023-01-19T03:44:10.446Z,65.09
2023-01-19T03:46:39.299Z,64.98
2023-01-19T03:49:08.477Z,64.77
2023-01-19T03:51:38.999Z,64.98
2023-01-19T03:54:08.259Z,64.65
2023-01-19T03:56:36.526Z,64.40
2023-01-19T03:59:07.531Z,64.54
2023-01-19T04:01:35.695Z,64.27
2023-01-19T04:04:03.862Z,64.70
2023-01-19T04:06:32.153Z,64.47
2023-01-19T04:09:00.219Z,64.75
2023-01-19T04:11:28.471Z,64.85
2023-01-19T04:13:56.488Z,64.79
2023-01-19T04:16:25.933Z,64.56
2023-01-19T04:18:54.032Z,65.03
2023-01-19T04:21:22.064Z,64.71
2023-01-19T04:23:50.811Z,64.89
2023-01-19T04:26:18.916Z,64.68
2023-01-19T04:28:47.018Z,64.60
2023-01-19T04:31:15.174Z,65.21
2023-01-19T04:33:44.620Z,65.22
2023-01-19T04:36:12.665Z,65.11
2023-01-19T04:38:40.771Z,64.88
2023-01-19T04:41:08.906Z,64.50
2023-01-19T04:43:37.015Z,64.46
2023-01-19T04:46:05.197Z,64.84
2023-01-19T04:48:33.316Z,64.70
2023-01-19T04:51:02.821Z,64.67
2023-01-19T04:53:30.823Z,64.67
2023-01-19T04:56:01.111Z,64.44
2023-01-19T04:58:29.180Z,64.24
2023-01-19T05:00:57.262Z,64.29
2023-01-19T05:03:26.589Z,64.31
2023-01-19T05:05:54.691Z,64.24
2023-01-19T05:08:24.500Z,63.92
2023-01-19T05:10:52.581Z,64.10
2023-01-19T05:13:20.668Z,63.81
2023-01-19T05:15:48.785Z,64.29
2023-01-19T05:18:16.929Z,64.39
2023-01-19T05:20:44.985Z,64.37
2023-01-19T05:23:13.016Z,64.40
2023-01-19T05:25:44.559Z,64.14
2023-01-19T05:28:12.913Z,64.02
2023-01-19T05:30:41.034Z,64.08
2023-01-19T05:33:09.146Z,63.90
2023-01-19T05:35:37.291Z,64.30
2023-01-19T05:38:05.543Z,64.05
2023-01-19T05:40:33.773Z,63.79
2023-01-19T05:43:05.306Z,63.37
2023-01-19T05:45:33.927Z,63.44
2023-01-19T05:48:02.385Z,63.59
2023-01-19T05:50:30.475Z,63.36
2023-01-19T05:52:59.149Z,63.75
2023-01-19T05:55:29.642Z,63.76
2023-01-19T05:57:57.704Z,63.71
2023-01-19T06:00:27.757Z,63.37
2023-01-19T06:02:55.990Z,63.10
2023-01-19T06:05:24.052Z,63.05
2023-01-19T06:07:52.654Z,63.14
2023-01-19T06:10:20.926Z,63.22
2023-01-19T06:12:49.659Z,63.25
2023-01-19T06:15:18.218Z,63.12
2023-01-19T06:17:47.711Z,63.36
2023-01-19T06:20:16.022Z,63.56
2023-01-19T06:22:44.131Z,63.13
2023-01-19T06:25:12.630Z,63.21
2023-01-19T06:27:44.818Z,63.29
2023-01-19T06:30:13.744Z,63.29
2023-01-19T06:32:41.944Z,63.30
2023-01-19T06:35:12.242Z,63.19
2023-01-19T06:37:40.411Z,63.14
2023-01-19T06:40:09.774Z,63.02
2023-01-19T06:42:37.839Z,63.27
2023-01-19T06:45:06.623Z,63.36
2023-01-19T06:47:34.918Z,63.23
2023-01-19T06:50:03.527Z,63.24
2023-01-19T06:52:33.202Z,63.32
2023-01-19T06:55:01.350Z,63.35
2023-01-19T06:57:29.369Z,63.58
2023-01-19T06:59:59.616Z,63.65
2023-01-19T07:02:28.711Z,63.61
2023-01-19T07:04:57.131Z,63.39
2023-01-19T07:07:25.247Z,63.65
2023-01-19T07:09:55.093Z,63.45
2023-01-19T07:12:23.406Z,63.69
2023-01-19T07:14:51.760Z,63.65
2023-01-19T07:17:20.594Z,63.63
2023-01-19T07:19:48.615Z,64.08
2023-01-19T07:22:16.716Z,64.71
2023-01-19T07:24:45.026Z,64.06
2023-01-19T07:27:16.363Z,64.33
2023-01-19T07:29:44.395Z,64.08
2023-01-19T07:32:12.572Z,63.79
2023-01-19T07:34:40.586Z,63.37
2023-01-19T07:37:09.626Z,63.27
2023-01-19T07:39:37.709Z,63.15
2023-01-19T07:42:05.828Z,63.31
2023-01-19T07:44:35.262Z,63.21
2023-01-19T07:47:03.305Z,63.67
2023-01-19T07:49:31.339Z,63.50
2023-01-19T07:51:59.388Z,63.33
2023-01-19T07:54:27.456Z,63.31
2023-01-19T07:56:55.813Z,63.07
2023-01-19T07:59:23.899Z,63.36
2023-01-19T08:01:54.253Z,63.44
2023-01-19T08:04:22.472Z,63.56
2023-01-19T08:06:50.589Z,63.64
2023-01-19T08:09:19.138Z,63.28
2023-01-19T08:11:47.193Z,63.03
2023-01-19T08:14:15.279Z,62.76
2023-01-19T08:16:43.763Z,62.97
2023-01-19T08:19:13.221Z,63.01
2023-01-19T08:21:41.321Z,62.90
2023-01-19T08:24:19.695Z,62.75
2023-01-19T08:26:48.140Z,63.25
2023-01-19T08:29:16.630Z,63.55
2023-01-19T08:31:44.984Z,63.76
2023-01-19T08:34:14.520Z,63.61
2023-01-19T08:36:42.515Z,63.85
2023-01-19T08:39:12.213Z,63.82
2023-01-19T08:41:40.335Z,63.56
2023-01-19T08:44:08.350Z,63.55
2023-01-19T08:46:36.505Z,63.42
2023-01-19T08:49:04.601Z,63.42
2023-01-19T08:51:34.023Z,63.51
2023-01-19T08:54:02.454Z,63.40
2023-01-19T08:56:30.731Z,63.81
2023-01-19T08:59:08.595Z,63.64
2023-01-19T09:01:38.202Z,63.62
2023-01-19T09:04:06.778Z,63.49
2023-01-19T09:06:36.249Z,63.56
2023-01-19T09:09:04.558Z,63.34
2023-01-19T09:11:33.136Z,63.27
2023-01-19T09:14:01.141Z,63.16
2023-01-19T09:16:29.373Z,63.51
2023-01-19T09:18:58.517Z,63.30
2023-01-19T09:21:26.717Z,63.50
2023-01-19T09:23:56.320Z,63.43
2023-01-19T09:26:24.448Z,63.66
2023-01-19T09:28:52.575Z,63.23
2023-01-19T09:31:20.709Z,62.84
2023-01-19T09:33:48.995Z,62.36
2023-01-19T09:36:17.094Z,62.03
2023-01-19T09:38:45.142Z,61.29
2023-01-19T09:41:21.070Z,61.19
2023-01-19T09:43:52.635Z,60.64
2023-01-19T09:46:26.345Z,60.15
2023-01-19T09:48:56.607Z,60.52
2023-01-19T09:51:26.964Z,60.08
2023-01-19T09:54:01.654Z,59.14
2023-01-19T09:56:32.405Z,59.17
2023-01-19T10:02:38.036Z,58.74
2023-01-19T10:05:14.583Z,58.05
2023-01-19T10:08:08.651Z,57.43
2023-01-19T10:10:37.895Z,58.02
2023-01-19T10:13:23.183Z,57.39
2023-01-19T10:16:00.265Z,55.87
2023-01-19T10:18:34.959Z,57.07
2023-01-19T10:21:06.836Z,56.73
2023-01-19T10:23:42.924Z,57.35
2023-01-19T10:26:16.279Z,57.48
2023-01-19T10:28:49.271Z,57.80
2023-01-19T10:31:20.319Z,55.71
2023-01-19T10:33:49.967Z,56.23
2023-01-19T10:36:23.919Z,55.45
2023-01-19T10:38:52.240Z,52.43
2023-01-19T10:41:24.317Z,51.79
2023-01-19T10:44:00.655Z,49.71
2023-01-19T10:46:38.679Z,48.93
2023-01-19T10:49:07.602Z,49.39
2023-01-19T10:51:46.010Z,48.63
2023-01-19T10:54:14.790Z,49.91
2023-01-19T10:56:43.468Z,50.37
2023-01-19T10:59:34.943Z,50.96
2023-01-19T11:02:17.940Z,51.92
2023-01-19T11:04:49.941Z,52.62
2023-01-19T11:07:21.402Z,52.55
2023-01-19T11:09:50.600Z,51.87
2023-01-19T11:12:21.206Z,50.93
2023-01-19T11:14:52.355Z,50.92
2023-01-19T11:17:23.462Z,51.70
2023-01-19T11:19:57.657Z,51.61
2023-01-19T11:22:29.872Z,51.84
2023-01-19T11:25:02.504Z,52.67
2023-01-19T11:27:35.560Z,52.94
2023-01-19T11:30:16.080Z,52.43
2023-01-19T11:32:44.076Z,53.17
2023-01-19T11:35:35.837Z,50.78
2023-01-19T11:38:25.708Z,47.98
2023-01-19T11:40:57.826Z,46.98
2023-01-19T11:43:39.729Z,45.45
2023-01-19T11:46:18.735Z,44.77
2023-01-19T11:48:52.886Z,43.55
2023-01-19T11:51:23.249Z,42.03
2023-01-19T11:53:53.797Z,41.25
2023-01-19T11:56:28.226Z,41.02
2023-01-19T11:58:56.812Z,40.49
2023-01-19T12:01:30.921Z,40.07
2023-01-19T12:04:07.786Z,39.26
2023-01-19T12:06:38.001Z,39.33
2023-01-19T12:09:14.130Z,38.04
2023-01-19T12:11:47.569Z,38.73
2023-01-19T12:14:20.563Z,38.52
2023-01-19T12:16:52.391Z,38.36
2023-01-19T12:19:25.768Z,37.33
2023-01-19T12:21:54.459Z,37.42
2023-01-19T12:24:31.151Z,36.41
2023-01-19T12:27:01.905Z,36.73
2023-01-19T12:29:32.543Z,36.51
2023-01-19T12:32:32.723Z,36.55
2023-01-19T12:35:00.949Z,36.51
2023-01-19T12:37:35.581Z,36.94
2023-01-19T12:40:18.550Z,36.79
2023-01-19T12:42:48.617Z,37.40
2023-01-19T12:45:18.223Z,37.39
2023-01-19T12:47:54.237Z,36.69
2023-01-19T12:50:25.756Z,39.14
2023-01-19T12:52:57.426Z,39.45
2023-01-19T12:55:31.021Z,37.84
2023-01-19T12:58:02.569Z,37.09
2023-01-19T13:00:34.242Z,37.64
2023-01-19T13:03:05.689Z,35.47
2023-01-19T13:05:50.135Z,36.11
2023-01-19T13:08:23.475Z,38.19
2023-01-19T13:11:19.856Z,39.80
2023-01-19T13:14:28.345Z,41.13
2023-01-19T13:17:03.337Z,42.40
2023-01-19T13:19:45.444Z,43.92
2023-01-19T13:22:50.736Z,44.26
2023-01-19T13:25:35.853Z,44.73
2023-01-19T13:28:10.173Z,45.41
2023-01-19T13:30:52.319Z,45.85
2023-01-19T13:33:23.373Z,46.36
2023-01-19T13:35:58.737Z,47.57
2023-01-19T13:38:28.916Z,47.74
2023-01-19T13:41:00.609Z,50.09
2023-01-19T13:43:33.297Z,49.48
2023-01-19T13:46:02.086Z,47.35
2023-01-19T13:48:32.313Z,45.32
2023-01-19T13:51:04.077Z,43.64
2023-01-19T13:53:32.715Z,41.94
2023-01-19T13:56:09.739Z,41.78
2023-01-19T13:58:37.836Z,43.02
2023-01-19T14:01:05.979Z,44.39
2023-01-19T14:03:34.100Z,43.03
2023-01-19T14:06:03.714Z,41.98
2023-01-19T14:08:32.891Z,41.10
2023-01-19T14:11:02.984Z,40.66
2023-01-19T14:13:32.745Z,40.24
2023-01-19T14:16:02.433Z,40.51
2023-01-19T14:18:32.139Z,41.15
2023-01-19T14:21:02.799Z,42.20
2023-01-19T14:23:44.186Z,42.84
2023-01-19T14:26:39.791Z,44.45
2023-01-19T14:29:26.208Z,45.09
2023-01-19T14:32:07.416Z,45.76
2023-01-19T14:34:38.883Z,45.26
2023-01-19T14:37:17.890Z,44.64
2023-01-19T14:39:49.364Z,43.95
2023-01-19T14:42:25.795Z,43.33
2023-01-19T14:44:56.416Z,42.97
2023-01-19T14:47:32.930Z,42.09
2023-01-19T14:50:07.504Z,42.63
2023-01-19T14:52:40.729Z,43.06
2023-01-19T14:55:20.623Z,43.54
2023-01-19T14:57:49.042Z,44.45
2023-01-19T15:00:20.004Z,45.45
2023-01-19T15:02:48.603Z,46.00
2023-01-19T15:05:17.127Z,46.37
2023-01-19T15:07:47.429Z,47.09
2023-01-19T15:10:20.670Z,47.28
2023-01-19T15:12:49.314Z,47.80
2023-01-19T15:15:22.676Z,48.15
2023-01-19T15:17:51.757Z,49.28
2023-01-19T15:20:21.963Z,49.11
2023-01-19T15:22:50.373Z,49.71
2023-01-19T15:25:21.574Z,49.81
2023-01-19T15:27:50.253Z,50.17
2023-01-19T15:30:20.708Z,50.56
2023-01-19T15:32:49.087Z,50.76
2023-01-19T15:35:19.297Z,51.23
2023-01-19T15:37:48.777Z,51.17
2023-01-19T15:40:17.557Z,52.00
2023-01-19T15:42:47.458Z,52.01
2023-01-19T15:45:32.820Z,52.77
2023-01-19T15:48:02.506Z,52.23
2023-01-19T15:50:30.888Z,52.66
2023-01-19T15:52:59.317Z,52.76
2023-01-19T15:55:27.631Z,52.79
2023-01-19T15:58:01.429Z,52.70
2023-01-19T16:00:30.157Z,53.02
2023-01-19T16:02:58.290Z,53.01
2023-01-19T16:05:41.525Z,52.77
2023-01-19T16:08:10.794Z,53.20
2023-01-19T16:10:38.991Z,53.43
2023-01-19T16:13:08.447Z,53.37
2023-01-19T16:15:37.280Z,53.46
2023-01-19T16:18:06.306Z,53.39
2023-01-19T16:20:34.442Z,53.65
2023-01-19T16:23:14.583Z,53.81
2023-01-19T16:25:43.376Z,53.63
2023-01-19T16:28:12.835Z,53.62
2023-01-19T16:30:40.923Z,53.97
2023-01-19T16:33:11.648Z,54.04
2023-01-19T16:35:40.165Z,54.07
2023-01-19T16:38:09.422Z,53.98
2023-01-19T16:40:37.941Z,54.23
2023-01-19T16:43:06.029Z,54.36
2023-01-19T16:45:35.499Z,54.64
2023-01-19T16:48:03.630Z,54.67
2023-01-19T16:50:31.737Z,54.81
2023-01-19T16:53:00.147Z,54.72
2023-01-19T16:55:28.294Z,54.70
2023-01-19T16:57:56.810Z,54.88
2023-01-19T17:00:25.128Z,54.89
2023-01-19T17:02:54.528Z,55.23
2023-01-19T17:05:24.151Z,55.16
2023-01-19T17:07:52.292Z,55.12
2023-01-19T17:10:20.489Z,54.99
2023-01-19T17:12:48.538Z,54.98
2023-01-19T17:15:16.738Z,55.16
2023-01-19T17:17:44.911Z,55.30
2023-01-19T17:20:14.898Z,55.36
2023-01-19T17:22:42.920Z,55.43
2023-01-19T17:25:11.040Z,55.42
2023-01-19T17:27:39.060Z,55.33
2023-01-19T17:30:07.821Z,55.34
2023-01-19T17:32:35.871Z,55.51
2023-01-19T17:35:03.927Z,55.23
2023-01-19T17:37:33.349Z,55.24
2023-01-19T17:40:01.517Z,55.52
2023-01-19T17:42:29.548Z,55.63
2023-01-19T17:44:57.616Z,55.57
2023-01-19T17:47:26.065Z,55.88
2023-01-19T17:49:54.237Z,56.06
2023-01-19T17:52:22.441Z,55.61
2023-01-19T17:54:51.921Z,55.81
2023-01-19T17:57:19.991Z,55.48
2023-01-19T17:59:48.457Z,55.36
2023-01-19T18:02:16.852Z,55.38
2023-01-19T18:04:45.165Z,55.61
2023-01-19T18:07:13.228Z,55.71
2023-01-19T18:09:41.304Z,55.65
2023-01-19T18:12:10.961Z,55.48
2023-01-19T18:14:40.316Z,55.58
2023-01-19T18:17:08.362Z,55.65
2023-01-19T18:19:36.504Z,56.04
2023-01-19T18:22:04.632Z,55.84
2023-01-19T18:24:32.710Z,55.75
2023-01-19T18:27:00.835Z,55.70
2023-01-19T18:29:31.214Z,55.93
2023-01-19T18:31:59.324Z,56.03
2023-01-19T18:34:27.431Z,56.38
2023-01-19T18:36:55.792Z,56.65
2023-01-19T18:39:23.913Z,56.58
2023-01-19T18:41:52.049Z,56.58
2023-01-19T18:44:20.201Z,56.80
2023-01-19T18:46:49.898Z,56.68
2023-01-19T18:49:17.952Z,56.79
2023-01-19T18:51:46.011Z,56.71
2023-01-19T18:54:14.051Z,56.73
2023-01-19T18:56:42.118Z,56.61
2023-01-19T18:59:11.151Z,56.48
2023-01-19T19:01:39.317Z,56.70
2023-01-19T19:04:09.243Z,56.51
2023-01-19T19:06:37.403Z,56.60
2023-01-19T19:09:05.536Z,56.44
2023-01-19T19:11:33.762Z,56.47
2023-01-19T19:14:03.004Z,56.68
2023-01-19T19:16:34.803Z,56.71
2023-01-19T19:19:03.546Z,56.49
2023-01-19T19:21:33.018Z,56.74
2023-01-19T19:24:01.105Z,57.00
2023-01-19T19:26:29.944Z,57.35
2023-01-19T19:28:58.314Z,56.90
2023-01-19T19:31:27.608Z,57.45
2023-01-19T19:33:57.049Z,57.16
2023-01-19T19:36:26.932Z,56.72
2023-01-19T19:38:56.447Z,56.93
2023-01-19T19:41:27.166Z,57.09
2023-01-19T19:43:56.413Z,56.89
2023-01-19T19:46:25.259Z,56.83
2023-01-19T19:48:54.664Z,56.63
2023-01-19T19:51:25.556Z,56.84
2023-01-19T19:53:56.842Z,56.75
2023-01-19T19:56:28.079Z,56.58
2023-01-19T19:58:57.456Z,56.83
2023-01-19T20:01:31.369Z,56.63
2023-01-19T20:04:06.502Z,56.82
2023-01-19T20:06:38.645Z,57.15
2023-01-19T20:09:07.922Z,57.00
2023-01-19T20:11:37.621Z,56.70
2023-01-19T20:14:06.771Z,56.46
2023-01-19T20:16:34.891Z,56.76
2023-01-19T20:19:03.400Z,56.87
2023-01-19T20:21:33.420Z,56.96
2023-01-19T20:24:02.910Z,57.29
2023-01-19T20:26:33.271Z,57.02
2023-01-19T20:29:06.220Z,57.02
2023-01-19T20:31:36.570Z,57.05
2023-01-19T20:34:06.718Z,56.89
2023-01-19T20:36:34.834Z,56.83
2023-01-19T20:39:08.549Z,56.87
2023-01-19T20:41:43.177Z,56.70
2023-01-19T20:44:13.415Z,56.56
2023-01-19T20:46:41.743Z,56.64
2023-01-19T20:49:10.201Z,56.77
2023-01-19T20:51:43.507Z,56.91
2023-01-19T20:54:11.961Z,57.64
2023-01-19T20:56:41.276Z,57.55
2023-01-19T20:59:09.766Z,57.62
2023-01-19T21:01:40.312Z,57.61
2023-01-19T21:04:09.400Z,57.85
2023-01-19T21:06:37.897Z,57.80
2023-01-19T21:09:07.006Z,58.22
2023-01-19T21:11:35.231Z,58.40
2023-01-19T21:14:03.474Z,58.62
2023-01-19T21:16:34.527Z,58.22
2023-01-19T21:19:04.509Z,58.09
2023-01-19T21:21:32.760Z,58.09
2023-01-19T21:24:02.261Z,58.27
2023-01-19T21:26:31.196Z,58.35
2023-01-19T21:28:59.768Z,58.38
2023-01-19T21:31:28.532Z,58.51
2023-01-19T21:33:57.225Z,58.93
2023-01-19T21:36:26.727Z,59.17
2023-01-19T21:39:00.065Z,59.12
2023-01-19T21:41:29.914Z,58.63
2023-01-19T21:43:58.547Z,58.35
2023-01-19T21:46:29.282Z,58.15
2023-01-19T21:48:58.044Z,58.21
2023-01-19T21:51:28.162Z,57.72
2023-01-19T21:53:59.605Z,57.74
2023-01-19T21:56:29.588Z,57.64
2023-01-19T21:58:59.486Z,57.51
2023-01-19T22:01:27.713Z,57.28
2023-01-19T22:03:57.287Z,57.24
2023-01-19T22:06:27.593Z,57.16
2023-01-19T22:08:57.885Z,57.12
2023-01-19T22:11:26.010Z,57.37
2023-01-19T22:13:54.429Z,57.45
2023-01-19T22:16:24.294Z,57.65
2023-01-19T22:18:54.167Z,57.69
2023-01-19T22:21:24.934Z,57.69
2023-01-19T22:23:56.337Z,58.05
2023-01-19T22:26:24.626Z,58.06
2023-01-19T22:28:54.869Z,57.75
2023-01-19T22:31:24.068Z,57.61
2023-01-19T22:33:52.173Z,57.62
2023-01-19T22:36:21.910Z,57.62
2023-01-19T22:38:51.886Z,57.87
2023-01-19T22:41:23.035Z,58.14
2023-01-19T22:43:53.666Z,58.14
2023-01-19T22:46:24.177Z,58.49
2023-01-19T22:48:53.100Z,58.80
2023-01-19T22:51:22.057Z,58.72
2023-01-19T22:53:50.369Z,58.86
2023-01-19T22:56:21.618Z,59.25
2023-01-19T22:58:50.163Z,59.48
2023-01-19T23:01:20.070Z,59.17
2023-01-19T23:03:48.553Z,59.10
2023-01-19T23:06:19.015Z,59.14
2023-01-19T23:08:47.725Z,59.27
2023-01-19T23:11:17.486Z,59.58
2023-01-19T23:13:47.051Z,59.44
2023-01-19T23:16:15.462Z,59.30
2023-01-19T23:18:44.867Z,58.96
2023-01-19T23:21:14.625Z,58.97
2023-01-19T23:23:43.569Z,59.67
2023-01-19T23:26:13.648Z,58.95
2023-01-19T23:28:42.190Z,58.97
2023-01-19T23:31:22.267Z,58.76
2023-01-19T23:33:50.988Z,58.78
2023-01-19T23:36:21.498Z,58.60
2023-01-19T23:38:50.834Z,58.51
2023-01-19T23:41:19.043Z,58.32
2023-01-19T23:43:47.215Z,58.13
2023-01-19T23:46:16.723Z,58.23
2023-01-19T23:48:46.231Z,58.40
2023-01-19T23:51:15.805Z,58.38
2023-01-19T23:53:44.594Z,58.47
2023-01-19T23:56:15.669Z,58.73
2023-01-19T23:58:44.165Z,58.83
